Currently 72°F in Perris, California, USA
72°F
73°F / 72°F
2 mph W
0.00"
Saturday, July 21, 2018 1:07 AM PDT

Perris, California Weather Summary
Last 36 Hours

Temperature Winds Hourly Humidity Dewpoint
Time Report Norm Report Norm Max Gusts Precip. Rpt. Norm Rpt. Norm Pressure
1Sat 01:07 AM  71.8°F  70°F  2 mph W  1 mph  8 mph  0.00"  67%  66%  60°F  58°F  N/A
3Sat 01:05 AM  71.6°F  70°F  3 mph S  1 mph  8 mph  ----  67%  66%  60°F  58°F  N/A
Sat 01:00 AM  71.8°F  70°F  5 mph NW  1 mph  8 mph  0.00"  67%  66%  60°F  58°F  N/A
2Sat 12:01 AM  73.1°F  71°F  5 mph W  2 mph  7 mph  ----  63%  63%  59°F  57°F  N/A
Sat 12:00 AM  73.1°F  71°F  4 mph W  2 mph  7 mph  0.00"  63%  63%  59°F  57°F  N/A
Fri 11:00 PM  73.9°F  72°F  3 mph SW  2 mph  9 mph  0.00"  62%  60%  60°F  57°F  N/A
Fri 10:00 PM  75.7°F  75°F  5 mph S  2 mph  13 mph  0.00"  60%  55%  60°F  57°F  N/A
Fri 09:00 PM  77.4°F  77°F  7 mph W  3 mph  11 mph  0.00"  57%  50%  61°F  56°F  N/A
Fri 08:00 PM  80.2°F  81°F  6 mph NW  4 mph  13 mph  0.00"  54%  43%  61°F  55°F  N/A
Fri 07:00 PM  83.1°F  85°F  9 mph NW  6 mph  15 mph  0.00"  52%  36%  63°F  54°F  N/A
Fri 06:00 PM  84.5°F  88°F  9 mph NW  7 mph  17 mph  0.00"  50%  32%  63°F  54°F  N/A
Fri 05:00 PM  87.1°F  91°F  9 mph NW  7 mph  17 mph  0.00"  47%  29%  64°F  54°F  N/A
Fri 04:00 PM  88.6°F  93°F  7 mph W  7 mph  17 mph  0.00"  45%  28%  64°F  53°F  N/A
Fri 03:00 PM  89.9°F  93°F  7 mph W  7 mph  17 mph  0.00"  46%  27%  66°F  53°F  N/A
Fri 02:00 PM  89.9°F  93°F  8 mph SW  5 mph  15 mph  0.00"  46%  26%  66°F  52°F  N/A
Fri 01:00 PM  88.1°F  91°F  6 mph NW  5 mph  17 mph  0.00"  49%  28%  66°F  52°F  N/A
Fri 12:00 PM  87.5°F  89°F  8 mph NW  4 mph  15 mph  0.00"  50%  31%  66°F  53°F  N/A
Fri 11:00 AM  87.8°F  85°F  4 mph S  2 mph  8 mph  0.00"  49%  37%  65°F  55°F  N/A
Fri 10:00 AM  84.3°F  81°F  4 mph NW  2 mph  7 mph  0.00"  56%  47%  66°F  58°F  N/A
Fri 09:00 AM  79.0°F  76°F  2 mph W  1 mph  7 mph  0.00"  68%  58%  67°F  59°F  N/A
Fri 08:00 AM  73.0°F  70°F  calm  1 mph  6 mph  0.00"  82%  70%  67°F  60°F  N/A
Fri 07:00 AM  69.6°F  66°F  3 mph W  1 mph  5 mph  0.00"  87%  77%  65°F  58°F  N/A
Fri 06:00 AM  69.7°F  66°F  calm  1 mph  5 mph  0.00"  85%  76%  65°F  58°F  N/A
Fri 05:00 AM  70.1°F  66°F  calm  1 mph  3 mph  0.00"  83%  75%  65°F  58°F  N/A
Fri 04:00 AM  71.2°F  67°F  2 mph NE  1 mph  4 mph  0.00"  82%  73%  65°F  58°F  N/A
Fri 03:00 AM  71.5°F  68°F  calm  1 mph  4 mph  0.00"  81%  72%  65°F  58°F  N/A
Fri 02:00 AM  72.5°F  69°F  1 mph SW  1 mph  4 mph  0.00"  78%  69%  65°F  58°F  N/A
Fri 01:00 AM  73.5°F  70°F  1 mph NW  1 mph  6 mph  0.00"  75%  66%  65°F  58°F  N/A
Fri 12:00 AM  73.6°F  71°F  2 mph SE  2 mph  7 mph  0.00"  70%  63%  63°F  57°F  N/A
Thu 11:00 PM  74.3°F  72°F  2 mph S  2 mph  5 mph  0.00"  68%  60%  63°F  57°F  N/A
Thu 10:00 PM  76.7°F  75°F  2 mph SE  2 mph  4 mph  0.00"  66%  54%  64°F  56°F  N/A
Thu 09:00 PM  77.9°F  77°F  1 mph SW  3 mph  10 mph  0.00"  64%  49%  64°F  56°F  N/A
Thu 08:00 PM  80.3°F  81°F  3 mph NW  5 mph  11 mph  0.00"  58%  43%  64°F  55°F  N/A
Thu 07:00 PM  82.6°F  85°F  5 mph SW  6 mph  15 mph  0.00"  57%  36%  65°F  54°F  N/A
Thu 06:00 PM  86.5°F  88°F  6 mph SW  7 mph  15 mph  0.00"  52%  32%  66°F  54°F  N/A
Thu 05:00 PM  89.7°F  91°F  5 mph NW  7 mph  20 mph  0.00"  49%  29%  67°F  54°F  N/A
Thu 04:00 PM  95.5°F  93°F  3 mph S  7 mph  15 mph  0.00"  40%  28%  67°F  54°F  N/A
Thu 03:00 PM  96.0°F  93°F  9 mph NW  6 mph  16 mph  0.00"  41%  27%  68°F  53°F  N/A
Thu 02:00 PM  96.6°F  93°F  6 mph W  5 mph  15 mph  0.00"  39%  27%  67°F  52°F  N/A

  1. Current weather data. No green row appears if the current weather data is also the high or low for the current day.
  2. High temperature for the current day.
  3. Low temperature for the current day.

The Perris, California weather pages are a service of WeatherCurrents. Perris is located in Southern California's Inland Empire, south of Riverside and north of Sun City, along the Interstate 215 freeway.
Copyright ©Sat Jul 21 01:08:28 PDT 2018  WeatherCurrents. All rights reserved. - Submit questions and comments - Privacy Policy

This page automatically refreshes every 10 minutes.